createdAt,value
2022-09-28T00:02:27.953Z,95.49
2022-09-28T00:04:55.547Z,95.89
2022-09-28T00:07:23.242Z,95.89
2022-09-28T00:09:50.673Z,95.85
2022-09-28T00:12:18.386Z,96.50
2022-09-28T00:14:47.193Z,96.73
2022-09-28T00:17:16.724Z,96.69
2022-09-28T00:19:45.063Z,96.43
2022-09-28T00:22:12.462Z,96.47
2022-09-28T00:24:39.966Z,96.57
2022-09-28T00:27:07.538Z,96.73
2022-09-28T00:29:36.410Z,96.96
2022-09-28T00:32:06.983Z,97.07
2022-09-28T00:34:36.944Z,97.39
2022-09-28T00:37:05.887Z,97.14
2022-09-28T00:39:34.272Z,97.06
2022-09-28T00:42:01.674Z,97.42
2022-09-28T00:44:36.728Z,97.17
2022-09-28T00:47:10.858Z,96.98
2022-09-28T00:49:42.748Z,97.23
2022-09-28T00:52:11.961Z,97.37
2022-09-28T00:54:39.473Z,97.11
2022-09-28T00:57:06.880Z,97.63
2022-09-28T00:59:34.586Z,97.36
2022-09-28T01:02:02.580Z,97.58
2022-09-28T01:04:32.015Z,97.85
2022-09-28T01:07:00.039Z,97.55
2022-09-28T01:09:28.768Z,97.54
2022-09-28T01:11:56.207Z,97.03
2022-09-28T01:14:25.681Z,97.27
2022-09-28T01:16:58.799Z,97.95
2022-09-28T01:19:41.888Z,97.52
2022-09-28T01:22:24.059Z,98.25
2022-09-28T01:24:57.377Z,98.88
2022-09-28T01:27:29.167Z,98.35
2022-09-28T01:30:03.508Z,98.61
2022-09-28T01:32:37.559Z,98.56
2022-09-28T01:35:08.870Z,98.52
2022-09-28T01:37:41.041Z,98.25
2022-09-28T01:40:10.017Z,98.40
2022-09-28T01:42:40.185Z,98.32
2022-09-28T01:45:12.496Z,98.44
2022-09-28T01:47:41.644Z,97.57
2022-09-28T01:50:11.951Z,97.32
2022-09-28T01:52:45.049Z,97.56
2022-09-28T01:55:15.079Z,98.35
2022-09-28T01:57:48.206Z,98.14
2022-09-28T02:00:17.101Z,98.18
2022-09-28T02:02:49.322Z,98.35
2022-09-28T02:05:19.405Z,98.46
2022-09-28T02:07:49.785Z,98.33
2022-09-28T02:10:20.374Z,98.84
2022-09-28T02:12:51.929Z,98.62
2022-09-28T02:15:22.009Z,99.19
2022-09-28T02:17:50.013Z,98.62
2022-09-28T02:20:18.393Z,98.43
2022-09-28T02:22:48.852Z,97.80
2022-09-28T02:25:22.537Z,96.66
2022-09-28T02:27:55.047Z,97.64
2022-09-28T02:30:22.712Z,97.40
2022-09-28T02:32:53.454Z,97.26
2022-09-28T02:35:21.182Z,97.32
2022-09-28T02:37:49.503Z,96.90
2022-09-28T02:40:18.431Z,95.43
2022-09-28T02:42:55.164Z,94.82
2022-09-28T02:45:40.657Z,94.78
2022-09-28T02:48:21.274Z,94.36
2022-09-28T02:51:01.128Z,94.82
2022-09-28T02:53:57.467Z,95.35
2022-09-28T02:56:39.773Z,95.40
2022-09-28T02:59:14.610Z,95.03
2022-09-28T03:01:48.017Z,95.51
2022-09-28T03:04:21.632Z,95.58
2022-09-28T03:06:54.400Z,95.61
2022-09-28T03:09:26.547Z,95.99
2022-09-28T03:11:55.123Z,96.31
2022-09-28T03:14:24.092Z,96.41
2022-09-28T03:16:51.570Z,96.47
2022-09-28T03:19:22.241Z,96.25
2022-09-28T03:21:49.871Z,95.94
2022-09-28T03:24:17.402Z,96.09
2022-09-28T03:26:44.846Z,95.78
2022-09-28T03:29:12.280Z,95.37
2022-09-28T03:31:41.074Z,95.54
2022-09-28T03:34:08.661Z,95.20
2022-09-28T03:36:36.174Z,95.43
2022-09-28T03:39:04.315Z,95.84
2022-09-28T03:41:31.749Z,95.26
2022-09-28T03:43:59.154Z,95.14
2022-09-28T03:46:27.322Z,95.45
2022-09-28T03:48:57.515Z,94.90
2022-09-28T03:51:24.928Z,95.33
2022-09-28T03:53:52.330Z,95.41
2022-09-28T03:56:20.297Z,95.75
2022-09-28T03:58:47.862Z,95.13
2022-09-28T04:01:17.843Z,95.27
2022-09-28T04:03:46.254Z,95.63
2022-09-28T04:06:15.581Z,96.07
2022-09-28T04:08:43.977Z,96.15
2022-09-28T04:11:11.421Z,95.97
2022-09-28T04:13:38.954Z,95.64
2022-09-28T04:16:06.910Z,95.91
2022-09-28T04:18:35.241Z,96.32
2022-09-28T04:21:06.492Z,95.98
2022-09-28T04:23:36.069Z,95.93
2022-09-28T04:26:03.615Z,96.54
2022-09-28T04:28:56.962Z,96.60
2022-09-28T04:31:24.894Z,95.69
2022-09-28T04:33:53.562Z,95.84
2022-09-28T04:36:21.152Z,96.02
2022-09-28T04:38:53.204Z,95.77
2022-09-28T04:41:22.354Z,96.09
2022-09-28T04:43:50.381Z,95.33
2022-09-28T04:46:18.167Z,94.50
2022-09-28T04:48:45.907Z,94.97
2022-09-28T04:51:13.355Z,94.40
2022-09-28T04:53:40.825Z,94.58
2022-09-28T04:56:12.144Z,94.79
2022-09-28T04:58:39.665Z,94.95
2022-09-28T05:01:09.384Z,95.46
2022-09-28T05:03:37.832Z,95.06
2022-09-28T05:06:06.834Z,95.01
2022-09-28T05:08:35.187Z,94.86
2022-09-28T05:11:04.632Z,94.28
2022-09-28T05:13:35.646Z,94.61
2022-09-28T05:16:05.616Z,94.58
2022-09-28T05:19:12.656Z,94.96
2022-09-28T05:21:40.850Z,94.86
2022-09-28T05:24:08.725Z,94.31
2022-09-28T05:26:36.266Z,94.09
2022-09-28T05:29:05.147Z,94.08
2022-09-28T05:31:33.085Z,94.18
2022-09-28T05:34:00.690Z,94.16
2022-09-28T05:36:28.528Z,93.39
2022-09-28T05:38:55.982Z,93.24
2022-09-28T05:41:23.985Z,93.40
2022-09-28T05:43:52.221Z,93.33
2022-09-28T05:46:21.763Z,93.14
2022-09-28T05:48:49.648Z,92.86
2022-09-28T05:51:17.069Z,93.24
2022-09-28T05:53:45.610Z,93.29
2022-09-28T05:56:13.380Z,93.37
2022-09-28T05:58:40.796Z,93.35
2022-09-28T06:01:08.270Z,93.02
2022-09-28T06:03:37.040Z,92.98
2022-09-28T06:06:04.515Z,92.53
2022-09-28T06:08:32.151Z,91.44
2022-09-28T06:11:00.445Z,92.25
2022-09-28T06:13:28.213Z,92.48
2022-09-28T06:15:55.699Z,91.99
2022-09-28T06:18:23.195Z,92.07
2022-09-28T06:20:52.088Z,91.95
2022-09-28T06:23:19.557Z,92.34
2022-09-28T06:25:46.974Z,92.42
2022-09-28T06:28:15.520Z,92.17
2022-09-28T06:30:44.046Z,93.11
2022-09-28T06:33:13.483Z,92.54
2022-09-28T06:35:40.951Z,93.54
2022-09-28T06:38:10.293Z,94.54
2022-09-28T06:40:38.117Z,94.11
2022-09-28T06:43:10.483Z,94.40
2022-09-28T06:45:38.752Z,93.74
2022-09-28T06:48:07.045Z,93.92
2022-09-28T06:50:37.303Z,94.45
2022-09-28T06:53:05.852Z,93.69
2022-09-28T06:55:34.655Z,93.22
2022-09-28T06:58:03.696Z,93.69
2022-09-28T07:00:33.913Z,94.06
2022-09-28T07:03:01.955Z,94.52
2022-09-28T07:05:29.951Z,93.99
2022-09-28T07:07:58.312Z,93.55
2022-09-28T07:10:27.697Z,94.25
2022-09-28T07:12:57.485Z,93.54
2022-09-28T07:15:26.009Z,93.08
2022-09-28T07:18:02.658Z,93.23
2022-09-28T07:20:31.947Z,92.77
2022-09-28T07:23:14.085Z,92.13
2022-09-28T07:25:47.640Z,91.99
2022-09-28T07:28:17.135Z,92.04
2022-09-28T07:30:45.377Z,90.94
2022-09-28T07:33:14.331Z,90.21
2022-09-28T07:35:42.895Z,91.26
2022-09-28T07:38:11.661Z,92.18
2022-09-28T07:41:01.993Z,90.69
2022-09-28T07:43:30.801Z,90.46
2022-09-28T07:45:58.884Z,89.73
2022-09-28T07:48:26.484Z,89.90
2022-09-28T07:50:56.548Z,88.91
2022-09-28T07:53:25.753Z,86.26
2022-09-28T07:55:53.693Z,86.71
2022-09-28T07:58:21.267Z,87.62
2022-09-28T08:00:51.068Z,85.44
2022-09-28T08:03:19.872Z,85.09
2022-09-28T08:05:48.007Z,86.05
2022-09-28T08:08:15.770Z,82.15
2022-09-28T08:10:46.569Z,81.44
2022-09-28T08:13:16.249Z,81.27
2022-09-28T08:15:43.700Z,84.52
2022-09-28T08:18:12.608Z,83.16
2022-09-28T08:20:57.668Z,84.24
2022-09-28T08:23:25.939Z,83.27
2022-09-28T08:25:53.965Z,84.40
2022-09-28T08:28:22.590Z,81.86
2022-09-28T08:30:50.382Z,81.99
2022-09-28T08:33:21.377Z,83.81
2022-09-28T08:35:49.351Z,83.36
2022-09-28T08:38:17.614Z,80.41
2022-09-28T08:40:51.373Z,80.57
2022-09-28T08:43:29.686Z,81.78
2022-09-28T08:45:58.056Z,84.20
2022-09-28T08:48:56.181Z,85.21
2022-09-28T08:51:31.960Z,84.14
2022-09-28T08:54:05.748Z,84.74
2022-09-28T08:56:40.320Z,85.57
2022-09-28T08:59:13.092Z,80.18
2022-09-28T09:01:45.768Z,80.45
2022-09-28T09:04:15.053Z,77.10
2022-09-28T09:07:01.806Z,78.34
2022-09-28T09:09:41.032Z,78.20
2022-09-28T09:12:11.837Z,81.68
2022-09-28T09:15:03.856Z,75.81
2022-09-28T09:17:41.732Z,78.47
2022-09-28T09:20:19.221Z,78.70
2022-09-28T09:22:56.660Z,76.72
2022-09-28T09:25:28.244Z,76.05
2022-09-28T09:28:09.738Z,71.96
2022-09-28T09:30:43.665Z,74.11
2022-09-28T09:33:34.593Z,74.92
2022-09-28T09:36:13.493Z,73.81
2022-09-28T09:38:48.673Z,74.14
2022-09-28T09:41:23.027Z,73.78
2022-09-28T09:44:20.333Z,71.16
2022-09-28T09:46:51.088Z,72.98
2022-09-28T09:49:21.517Z,70.82
2022-09-28T09:51:54.455Z,73.13
2022-09-28T09:54:24.756Z,69.75
2022-09-28T09:56:57.160Z,68.03
2022-09-28T09:59:28.425Z,69.89
2022-09-28T10:01:56.549Z,70.22
2022-09-28T10:04:26.043Z,73.64
2022-09-28T10:07:01.773Z,71.34
2022-09-28T10:09:32.226Z,72.56
2022-09-28T10:11:59.651Z,72.80
2022-09-28T10:14:27.224Z,70.58
2022-09-28T10:16:56.991Z,71.90
2022-09-28T10:19:30.199Z,73.04
2022-09-28T10:22:01.806Z,73.73
2022-09-28T10:24:32.661Z,74.61
2022-09-28T10:27:05.492Z,74.04
2022-09-28T10:29:41.168Z,73.32
2022-09-28T10:32:19.890Z,74.53
2022-09-28T10:34:50.299Z,75.83
2022-09-28T10:37:20.201Z,73.41
2022-09-28T10:39:51.083Z,72.25
2022-09-28T10:42:20.681Z,73.23
2022-09-28T10:44:54.015Z,71.28
2022-09-28T10:47:23.565Z,70.63
2022-09-28T10:49:52.187Z,69.02
2022-09-28T10:52:39.659Z,68.91
2022-09-28T10:55:30.497Z,68.48
2022-09-28T10:57:57.949Z,67.57
2022-09-28T11:00:34.666Z,68.31
2022-09-28T11:03:02.802Z,66.64
2022-09-28T11:05:30.426Z,67.83
2022-09-28T11:08:00.789Z,70.92
2022-09-28T11:10:30.046Z,68.72
2022-09-28T11:12:58.263Z,69.58
2022-09-28T11:15:27.147Z,67.61
2022-09-28T11:17:54.622Z,68.72
2022-09-28T11:20:32.894Z,67.91
2022-09-28T11:23:15.718Z,66.83
2022-09-28T11:25:43.448Z,68.76
2022-09-28T11:28:23.341Z,68.58
2022-09-28T11:30:52.244Z,67.38
2022-09-28T11:33:21.406Z,64.54
2022-09-28T11:35:53.229Z,62.49
2022-09-28T11:38:33.489Z,62.74
2022-09-28T11:41:18.734Z,66.62
2022-09-28T11:44:27.044Z,65.07
2022-09-28T11:47:04.698Z,63.73
2022-09-28T11:49:35.733Z,65.77
2022-09-28T11:52:08.005Z,65.21
2022-09-28T11:54:42.082Z,63.43
2022-09-28T11:57:15.383Z,65.90
2022-09-28T11:59:50.131Z,64.96
2022-09-28T12:02:21.951Z,63.10
2022-09-28T12:04:53.625Z,63.91
2022-09-28T12:07:25.660Z,64.56
2022-09-28T12:09:56.421Z,65.92
2022-09-28T12:12:26.352Z,65.29
2022-09-28T12:14:54.433Z,66.05
2022-09-28T12:17:24.716Z,66.14
2022-09-28T12:19:55.557Z,65.66
2022-09-28T12:22:26.625Z,65.44
2022-09-28T12:24:57.591Z,64.39
2022-09-28T12:27:28.883Z,62.19
2022-09-28T12:29:59.444Z,63.01
2022-09-28T12:32:32.207Z,62.79
2022-09-28T12:34:59.691Z,60.44
2022-09-28T12:37:36.714Z,62.37
2022-09-28T12:40:22.549Z,62.95
2022-09-28T12:43:04.272Z,63.24
2022-09-28T12:46:09.767Z,61.01
2022-09-28T12:49:47.191Z,63.52
2022-09-28T12:51:49.076Z,64.45
2022-09-28T12:54:30.452Z,64.15
2022-09-28T12:57:08.720Z,63.85
2022-09-28T12:59:39.066Z,66.08
2022-09-28T13:02:24.021Z,63.88
2022-09-28T13:05:03.252Z,66.12
2022-09-28T13:07:37.073Z,65.82
2022-09-28T13:10:13.924Z,65.31
2022-09-28T13:12:52.541Z,66.70
2022-09-28T13:15:40.662Z,65.54
2022-09-28T13:18:13.636Z,64.45
2022-09-28T13:20:54.128Z,65.33
2022-09-28T13:23:23.582Z,63.85
2022-09-28T13:25:55.583Z,65.10
2022-09-28T13:28:27.214Z,64.64
2022-09-28T13:33:31.498Z,62.48
2022-09-28T13:35:58.968Z,64.77
2022-09-28T13:38:54.388Z,61.18
2022-09-28T13:41:29.131Z,60.91
2022-09-28T13:44:27.557Z,61.07
2022-09-28T13:47:10.137Z,60.76
2022-09-28T13:49:45.453Z,60.45
2022-09-28T13:52:29.325Z,61.44
2022-09-28T13:55:09.043Z,61.62
2022-09-28T13:57:43.003Z,62.42
2022-09-28T14:00:18.473Z,61.76
2022-09-28T14:02:48.658Z,62.07
2022-09-28T14:05:46.047Z,61.11
2022-09-28T14:08:33.582Z,63.20
2022-09-28T14:11:40.147Z,64.42
2022-09-28T14:14:26.248Z,62.29
2022-09-28T14:17:16.234Z,64.26
2022-09-28T14:19:43.936Z,63.00
2022-09-28T14:22:19.247Z,62.78
2022-09-28T14:25:04.273Z,63.12
2022-09-28T14:28:01.194Z,63.22
2022-09-28T14:30:45.245Z,63.86
2022-09-28T14:33:23.418Z,64.57
2022-09-28T14:35:55.508Z,63.60
2022-09-28T14:38:42.002Z,62.49
2022-09-28T14:41:17.583Z,66.34
2022-09-28T14:44:09.117Z,66.43
2022-09-28T14:46:38.740Z,67.21
2022-09-28T14:49:47.547Z,65.71
2022-09-28T14:52:19.835Z,67.85
2022-09-28T14:54:53.698Z,67.84
2022-09-28T14:57:23.972Z,69.43
2022-09-28T14:59:51.599Z,68.20
2022-09-28T15:02:25.375Z,66.94
2022-09-28T15:05:00.793Z,70.96
2022-09-28T15:07:32.800Z,73.13
2022-09-28T15:10:02.062Z,72.12
2022-09-28T15:12:30.726Z,72.67
2022-09-28T15:15:01.299Z,73.58
2022-09-28T15:17:32.821Z,72.10
2022-09-28T15:20:17.165Z,73.32
2022-09-28T15:22:48.753Z,73.12
2022-09-28T15:25:19.791Z,74.48
2022-09-28T15:27:52.551Z,74.29
2022-09-28T15:30:24.157Z,72.80
2022-09-28T15:32:51.836Z,73.13
2022-09-28T15:35:22.149Z,73.37
2022-09-28T15:37:51.992Z,73.48
2022-09-28T15:40:22.530Z,72.19
2022-09-28T15:42:50.262Z,73.73
2022-09-28T15:45:24.772Z,72.95
2022-09-28T15:47:58.355Z,73.35
2022-09-28T15:50:30.020Z,73.96
2022-09-28T15:53:00.685Z,73.65
2022-09-28T15:55:31.086Z,73.47
2022-09-28T15:58:15.755Z,73.63
2022-09-28T16:00:44.621Z,74.24
2022-09-28T16:03:29.507Z,74.28
2022-09-28T16:06:08.518Z,74.57
2022-09-28T16:08:41.166Z,74.29
2022-09-28T16:11:13.409Z,74.26
2022-09-28T16:13:56.043Z,74.52
2022-09-28T16:16:27.551Z,74.75
2022-09-28T16:18:55.417Z,75.12
2022-09-28T16:21:43.691Z,76.59
2022-09-28T16:24:21.041Z,76.44
2022-09-28T16:26:49.620Z,75.95
2022-09-28T16:29:26.541Z,76.29
2022-09-28T16:31:54.239Z,76.27
2022-09-28T16:34:25.615Z,76.32
2022-09-28T16:36:54.805Z,77.10
2022-09-28T16:39:22.393Z,77.34
2022-09-28T16:41:52.856Z,77.50
2022-09-28T16:44:25.817Z,77.43
2022-09-28T16:46:55.148Z,77.76
2022-09-28T16:49:25.234Z,78.07
2022-09-28T16:51:54.211Z,78.27
2022-09-28T16:54:40.866Z,78.29
2022-09-28T16:57:10.695Z,78.60
2022-09-28T16:59:38.752Z,78.69
2022-09-28T17:02:45.327Z,78.37
2022-09-28T17:05:10.084Z,78.76
2022-09-28T17:07:38.892Z,78.63
2022-09-28T17:10:15.149Z,78.41
2022-09-28T17:12:42.570Z,78.75
2022-09-28T17:15:10.570Z,78.97
2022-09-28T17:17:38.383Z,80.24
2022-09-28T17:20:16.737Z,80.06
2022-09-28T17:22:45.565Z,80.18
2022-09-28T17:25:13.408Z,80.59
2022-09-28T17:27:41.639Z,79.95
2022-09-28T17:30:11.665Z,80.71
2022-09-28T17:32:39.446Z,80.00
2022-09-28T17:35:23.675Z,80.44
2022-09-28T17:37:53.569Z,80.67
2022-09-28T17:40:24.955Z,81.47
2022-09-28T17:42:56.003Z,81.44
2022-09-28T17:45:28.501Z,80.88
2022-09-28T17:47:56.490Z,80.68
2022-09-28T17:50:26.131Z,80.85
2022-09-28T17:52:55.685Z,81.99
2022-09-28T17:55:24.670Z,82.43
2022-09-28T17:57:52.288Z,81.72
2022-09-28T18:00:20.141Z,82.34
2022-09-28T18:02:48.463Z,82.90
2022-09-28T18:05:16.309Z,83.64
2022-09-28T18:07:47.412Z,83.77
2022-09-28T18:10:18.220Z,82.98
2022-09-28T18:12:45.812Z,83.57
2022-09-28T18:15:13.358Z,84.34
2022-09-28T18:17:41.410Z,84.38
2022-09-28T18:20:11.031Z,84.83
2022-09-28T18:22:38.654Z,86.10
2022-09-28T18:25:07.767Z,86.32
2022-09-28T18:27:36.736Z,85.94
2022-09-28T18:30:05.209Z,85.62
2022-09-28T18:32:35.077Z,85.32
2022-09-28T18:35:02.655Z,85.26
2022-09-28T18:37:30.281Z,86.53
2022-09-28T18:39:58.008Z,86.58
2022-09-28T18:42:25.693Z,87.26
2022-09-28T18:44:54.690Z,87.81
2022-09-28T18:47:22.415Z,87.16
2022-09-28T18:49:50.917Z,86.43
2022-09-28T18:52:18.496Z,86.56
2022-09-28T18:54:46.712Z,85.34
2022-09-28T18:57:15.179Z,86.22
2022-09-28T18:59:42.765Z,86.13
2022-09-28T19:02:12.220Z,85.94
2022-09-28T19:04:40.257Z,85.94
2022-09-28T19:07:08.908Z,85.97
2022-09-28T19:09:36.535Z,85.98
2022-09-28T19:12:05.950Z,86.79
2022-09-28T19:14:33.543Z,87.47
2022-09-28T19:17:01.188Z,87.01
2022-09-28T19:19:30.390Z,87.38
2022-09-28T19:21:58.130Z,87.37
2022-09-28T19:24:26.233Z,87.03
2022-09-28T19:26:54.369Z,87.24
2022-09-28T19:29:22.044Z,86.41
2022-09-28T19:31:50.229Z,87.00
2022-09-28T19:34:18.424Z,87.29
2022-09-28T19:36:47.392Z,87.19
2022-09-28T19:39:15.719Z,87.88
2022-09-28T19:41:47.823Z,88.22
2022-09-28T19:44:24.309Z,88.49
2022-09-28T19:46:53.650Z,88.98
2022-09-28T19:49:22.489Z,88.98
2022-09-28T19:52:12.060Z,88.67
2022-09-28T19:54:41.149Z,89.50
2022-09-28T19:57:09.100Z,89.71
2022-09-28T19:59:37.002Z,89.40
2022-09-28T20:02:05.058Z,89.38
2022-09-28T20:04:32.653Z,89.48
2022-09-28T20:07:01.811Z,89.41
2022-09-28T20:09:29.555Z,89.66
2022-09-28T20:11:57.198Z,89.00
2022-09-28T20:14:28.158Z,88.35
2022-09-28T20:16:59.600Z,87.61
2022-09-28T20:19:27.261Z,86.74
2022-09-28T20:21:59.289Z,86.97
2022-09-28T20:24:28.970Z,86.30
2022-09-28T20:26:56.711Z,86.71
2022-09-28T20:29:24.858Z,86.81
2022-09-28T20:31:54.164Z,87.37
2022-09-28T20:34:21.724Z,87.08
2022-09-28T20:36:49.334Z,87.06
2022-09-28T20:39:17.088Z,87.84
2022-09-28T20:41:47.162Z,87.80
2022-09-28T20:44:14.893Z,88.09
2022-09-28T20:46:43.921Z,88.62
2022-09-28T20:49:11.806Z,88.37
2022-09-28T20:51:39.469Z,88.33
2022-09-28T20:54:07.194Z,89.63
2022-09-28T20:56:37.991Z,90.37
2022-09-28T20:59:08.090Z,89.56
2022-09-28T21:01:36.154Z,89.29
2022-09-28T21:04:06.005Z,89.67
2022-09-28T21:06:35.032Z,89.74
2022-09-28T21:09:02.666Z,88.53
2022-09-28T21:11:30.873Z,87.77
2022-09-28T21:14:00.048Z,86.98
2022-09-28T21:16:30.446Z,87.20
2022-09-28T21:18:58.551Z,87.19
2022-09-28T21:21:26.758Z,87.72
2022-09-28T21:23:54.731Z,87.35
2022-09-28T21:26:25.633Z,87.62
2022-09-28T21:28:53.490Z,87.90
2022-09-28T21:31:24.905Z,86.84
2022-09-28T21:33:57.654Z,87.11
2022-09-28T21:36:25.867Z,87.27
2022-09-28T21:38:54.182Z,87.54
2022-09-28T21:41:21.773Z,86.50
2022-09-28T21:43:49.408Z,86.12
2022-09-28T21:46:17.498Z,87.21
2022-09-28T21:48:45.260Z,86.66
2022-09-28T21:51:15.571Z,87.39
2022-09-28T21:53:43.771Z,87.07
2022-09-28T21:56:13.295Z,87.65
2022-09-28T21:58:41.305Z,87.11
2022-09-28T22:01:13.087Z,86.84
2022-09-28T22:03:40.868Z,85.92
2022-09-28T22:06:09.497Z,86.12
2022-09-28T22:08:38.494Z,86.42
2022-09-28T22:11:07.820Z,86.40
2022-09-28T22:13:37.080Z,86.89
2022-09-28T22:16:04.868Z,87.04
2022-09-28T22:18:33.953Z,87.13
2022-09-28T22:21:01.984Z,87.68
2022-09-28T22:23:29.855Z,88.16
2022-09-28T22:26:03.212Z,86.61
2022-09-28T22:28:30.703Z,85.01
2022-09-28T22:30:58.402Z,85.41
2022-09-28T22:33:26.394Z,85.13
2022-09-28T22:35:54.871Z,86.60
2022-09-28T22:38:24.189Z,87.42
2022-09-28T22:40:52.921Z,87.16
2022-09-28T22:43:22.588Z,87.16
2022-09-28T22:45:50.155Z,88.05
2022-09-28T22:48:18.131Z,87.84
2022-09-28T22:50:49.563Z,87.80
2022-09-28T22:53:17.014Z,88.40
2022-09-28T22:55:44.596Z,88.35
2022-09-28T22:58:12.627Z,88.10
2022-09-28T23:00:41.466Z,88.13
2022-09-28T23:03:08.966Z,88.38
2022-09-28T23:05:36.529Z,89.07
2022-09-28T23:08:04.483Z,89.14
2022-09-28T23:10:31.979Z,89.35
2022-09-28T23:12:59.582Z,88.88
2022-09-28T23:15:28.390Z,89.06
2022-09-28T23:17:57.165Z,88.53
2022-09-28T23:20:24.849Z,88.52
2022-09-28T23:22:52.369Z,89.08
2022-09-28T23:25:20.213Z,89.76
2022-09-28T23:27:47.969Z,90.30
2022-09-28T23:30:16.323Z,91.02
2022-09-28T23:32:43.882Z,90.97
2022-09-28T23:35:13.376Z,91.31
2022-09-28T23:37:41.029Z,91.33
2022-09-28T23:40:08.889Z,91.10
2022-09-28T23:42:36.340Z,91.31
2022-09-28T23:45:03.824Z,90.38
2022-09-28T23:47:31.272Z,90.51
2022-09-28T23:49:58.723Z,90.50
2022-09-28T23:52:27.523Z,90.50
2022-09-28T23:54:55.031Z,90.40
2022-09-28T23:57:22.480Z,90.38
2022-09-28T23:59:49.954Z,90.15
